This is the latest recevied weather packets stored in our database for station/object BMCB-7. If no packets are shown the sender has not sent any weather packets the latest 10 day(s).
| Time | Temp. | Humidity | Pressure | Rain* | Wind** | Luminosity | Snow |
|---|---|---|---|---|---|---|---|
| 1777962618 | 11.11° C | 99% | 1009.2 hPa | 0 mm | - | 172 W/m² | - |
| 1777960818 | 10.56° C | 99% | 1009.3 hPa | 0 mm | - | 70 W/m² | - |
| 1777912850 | 12.78° C | 92% | 1011.7 hPa | 0 mm | - | 112 W/m² | - |
| 1777906221 | 13.89° C | 89% | 1012.1 hPa | 0.51 mm | - | 290 W/m² | - |
| 1777900848 | 13.33° C | 93% | 1012.5 hPa | 0.76 mm | - | 192 W/m² | - |
| 1777894843 | 13.89° C | 92% | 1012.8 hPa | 0.25 mm | - | 234 W/m² | - |
| 1777893040 | 13.89° C | 91% | 1013 hPa | 0 mm | - | 190 W/m² | - |
| 1777883450 | 12.78° C | 91% | 1013.2 hPa | 0 mm | - | 106 W/m² | - |
| 1777882846 | 12.78° C | 91% | 1013.1 hPa | 0 mm | - | 108 W/m² | - |
| 1777876245 | 11.67° C | 93% | 1012.6 hPa | 0 mm | - | 110 W/m² | - |
| 1777872041 | 10.56° C | 96% | 1012.3 hPa | 0 mm | - | 116 W/m² | - |
| 1777869046 | 10° C | 96% | 1012.1 hPa | 0 mm | - | 16 W/m² | - |
| 1777866045 | 9.44° C | 96% | 1012.1 hPa | 0 mm | - | 0 W/m² | - |
| 1777864231 | 10° C | 94% | 1012.2 hPa | 0 mm | - | 0 W/m² | - |
| 1777857047 | 11.11° C | 92% | 1012.1 hPa | 0 mm | - | 0 W/m² | - |
| 1777849851 | 11.67° C | 92% | 1012.1 hPa | 0 mm | - | 0 W/m² | - |
| 1777849250 | 11.67° C | 92% | 1012.1 hPa | 0 mm | - | 0 W/m² | - |
| 1777842050 | 12.22° C | 92% | 1012 hPa | 0 mm | - | 0 W/m² | - |
| 1777839059 | 12.22° C | 92% | 1012 hPa | 0 mm | - | 0 W/m² | - |
| 1777827051 | 13.33° C | 91% | 1011.3 hPa | 0 mm | - | 80 W/m² | - |
| 1777825248 | 12.78° C | 93% | 1011.4 hPa | 0 mm | - | 78 W/m² | - |
| 1777824049 | 12.78° C | 94% | 1011.5 hPa | 0 mm | - | 26 W/m² | - |
| 1777823454 | 12.78° C | 94% | 1011.5 hPa | 0 mm | - | 52 W/m² | - |
| 1777822848 | 12.78° C | 93% | 1011.6 hPa | 0 mm | - | 42 W/m² | - |
| 1777815047 | 12.78° C | 93% | 1012.1 hPa | 0.25 mm | - | 148 W/m² | - |
* Rain latest hour (hover to see other rain measurements)
** Current wind speed in m/s (hover to see current wind gust speed)